sensor_id;sensor_type;location;lat;lon;timestamp;P1;durP1;ratioP1;P2;durP2;ratioP2
71639;SDS011;60912;48.968;10.124;2023-05-07T00:02:08;4.83;;;2.50;;
71639;SDS011;60912;48.968;10.124;2023-05-07T00:04:34;5.00;;;2.67;;
71639;SDS011;60912;48.968;10.124;2023-05-07T00:07:03;4.20;;;2.50;;
71639;SDS011;60912;48.968;10.124;2023-05-07T00:09:28;5.32;;;2.47;;
71639;SDS011;60912;48.968;10.124;2023-05-07T00:11:54;4.93;;;2.70;;
71639;SDS011;60912;48.968;10.124;2023-05-07T00:14:19;7.47;;;2.53;;
71639;SDS011;60912;48.968;10.124;2023-05-07T00:16:45;7.20;;;3.00;;
71639;SDS011;60912;48.968;10.124;2023-05-07T00:19:10;7.22;;;2.35;;
71639;SDS011;60912;48.968;10.124;2023-05-07T00:21:35;7.37;;;2.43;;
71639;SDS011;60912;48.968;10.124;2023-05-07T00:24:01;4.83;;;2.33;;
71639;SDS011;60912;48.968;10.124;2023-05-07T00:26:26;5.53;;;2.83;;
71639;SDS011;60912;48.968;10.124;2023-05-07T00:28:52;4.53;;;2.27;;
71639;SDS011;60912;48.968;10.124;2023-05-07T00:31:17;5.03;;;1.87;;
71639;SDS011;60912;48.968;10.124;2023-05-07T00:33:42;4.80;;;1.90;;
71639;SDS011;60912;48.968;10.124;2023-05-07T00:36:08;5.40;;;2.00;;
71639;SDS011;60912;48.968;10.124;2023-05-07T00:38:33;3.30;;;1.70;;
71639;SDS011;60912;48.968;10.124;2023-05-07T00:40:58;4.37;;;1.90;;
71639;SDS011;60912;48.968;10.124;2023-05-07T00:43:24;5.33;;;1.80;;
71639;SDS011;60912;48.968;10.124;2023-05-07T00:45:49;4.17;;;1.87;;
71639;SDS011;60912;48.968;10.124;2023-05-07T00:48:15;5.77;;;2.10;;
71639;SDS011;60912;48.968;10.124;2023-05-07T00:50:41;4.65;;;2.00;;
71639;SDS011;60912;48.968;10.124;2023-05-07T00:53:06;5.43;;;2.00;;
71639;SDS011;60912;48.968;10.124;2023-05-07T00:55:32;4.18;;;1.80;;
71639;SDS011;60912;48.968;10.124;2023-05-07T00:57:58;4.40;;;2.13;;
71639;SDS011;60912;48.968;10.124;2023-05-07T01:00:23;3.10;;;1.90;;
71639;SDS011;60912;48.968;10.124;2023-05-07T01:02:50;3.75;;;1.70;;
71639;SDS011;60912;48.968;10.124;2023-05-07T01:05:15;4.00;;;1.80;;
71639;SDS011;60912;48.968;10.124;2023-05-07T01:07:43;5.65;;;2.40;;
71639;SDS011;60912;48.968;10.124;2023-05-07T01:10:10;6.90;;;2.40;;
71639;SDS011;60912;48.968;10.124;2023-05-07T01:12:37;4.40;;;2.15;;
71639;SDS011;60912;48.968;10.124;2023-05-07T01:15:04;5.57;;;1.93;;
71639;SDS011;60912;48.968;10.124;2023-05-07T01:17:35;3.88;;;2.30;;
71639;SDS011;60912;48.968;10.124;2023-05-07T01:20:03;5.32;;;2.45;;
71639;SDS011;60912;48.968;10.124;2023-05-07T01:22:31;6.35;;;2.30;;
71639;SDS011;60912;48.968;10.124;2023-05-07T01:24:58;4.82;;;2.20;;
71639;SDS011;60912;48.968;10.124;2023-05-07T01:27:24;5.77;;;2.00;;
71639;SDS011;60912;48.968;10.124;2023-05-07T01:29:50;5.30;;;2.05;;
71639;SDS011;60912;48.968;10.124;2023-05-07T01:32:15;4.27;;;2.10;;
71639;SDS011;60912;48.968;10.124;2023-05-07T01:34:45;4.95;;;1.90;;
71639;SDS011;60912;48.968;10.124;2023-05-07T01:37:13;4.60;;;1.90;;
71639;SDS011;60912;48.968;10.124;2023-05-07T01:39:39;5.40;;;1.70;;
71639;SDS011;60912;48.968;10.124;2023-05-07T01:42:05;4.40;;;2.03;;
71639;SDS011;60912;48.968;10.124;2023-05-07T01:44:30;3.78;;;2.05;;
71639;SDS011;60912;48.968;10.124;2023-05-07T01:46:56;3.53;;;2.10;;
71639;SDS011;60912;48.968;10.124;2023-05-07T01:49:22;4.80;;;2.20;;
71639;SDS011;60912;48.968;10.124;2023-05-07T01:51:47;3.13;;;1.90;;
71639;SDS011;60912;48.968;10.124;2023-05-07T01:54:13;4.20;;;2.05;;
71639;SDS011;60912;48.968;10.124;2023-05-07T01:56:39;5.10;;;2.23;;
71639;SDS011;60912;48.968;10.124;2023-05-07T01:59:04;5.82;;;2.15;;
71639;SDS011;60912;48.968;10.124;2023-05-07T02:01:30;5.20;;;2.40;;
71639;SDS011;60912;48.968;10.124;2023-05-07T02:03:55;5.87;;;2.03;;
71639;SDS011;60912;48.968;10.124;2023-05-07T02:06:21;6.27;;;2.10;;
71639;SDS011;60912;48.968;10.124;2023-05-07T02:08:46;4.50;;;2.10;;
71639;SDS011;60912;48.968;10.124;2023-05-07T02:11:12;4.88;;;2.17;;
71639;SDS011;60912;48.968;10.124;2023-05-07T02:13:37;3.17;;;2.10;;
71639;SDS011;60912;48.968;10.124;2023-05-07T02:16:02;3.73;;;2.30;;
71639;SDS011;60912;48.968;10.124;2023-05-07T02:18:28;6.85;;;2.30;;
71639;SDS011;60912;48.968;10.124;2023-05-07T02:20:54;6.30;;;2.60;;
71639;SDS011;60912;48.968;10.124;2023-05-07T02:23:19;7.77;;;2.20;;
71639;SDS011;60912;48.968;10.124;2023-05-07T02:25:45;5.45;;;2.20;;
71639;SDS011;60912;48.968;10.124;2023-05-07T02:28:11;5.13;;;2.03;;
71639;SDS011;60912;48.968;10.124;2023-05-07T02:30:36;5.40;;;2.20;;
71639;SDS011;60912;48.968;10.124;2023-05-07T02:33:02;4.17;;;2.30;;
71639;SDS011;60912;48.968;10.124;2023-05-07T02:35:28;5.22;;;2.05;;
71639;SDS011;60912;48.968;10.124;2023-05-07T02:37:53;3.97;;;2.20;;
71639;SDS011;60912;48.968;10.124;2023-05-07T02:40:18;4.53;;;2.43;;
71639;SDS011;60912;48.968;10.124;2023-05-07T02:42:44;5.43;;;2.53;;
71639;SDS011;60912;48.968;10.124;2023-05-07T02:45:09;4.13;;;2.20;;
71639;SDS011;60912;48.968;10.124;2023-05-07T02:47:35;3.90;;;2.00;;
71639;SDS011;60912;48.968;10.124;2023-05-07T02:50:00;4.13;;;2.00;;
71639;SDS011;60912;48.968;10.124;2023-05-07T02:52:26;7.47;;;2.30;;
71639;SDS011;60912;48.968;10.124;2023-05-07T02:54:51;5.87;;;2.20;;
71639;SDS011;60912;48.968;10.124;2023-05-07T02:57:16;6.00;;;1.92;;
71639;SDS011;60912;48.968;10.124;2023-05-07T02:59:42;3.37;;;2.00;;
71639;SDS011;60912;48.968;10.124;2023-05-07T03:02:07;3.90;;;1.90;;
71639;SDS011;60912;48.968;10.124;2023-05-07T03:04:33;3.65;;;1.75;;
71639;SDS011;60912;48.968;10.124;2023-05-07T03:06:58;4.10;;;2.23;;
71639;SDS011;60912;48.968;10.124;2023-05-07T03:09:23;3.10;;;1.77;;
71639;SDS011;60912;48.968;10.124;2023-05-07T03:11:49;5.73;;;2.00;;
71639;SDS011;60912;48.968;10.124;2023-05-07T03:14:14;5.17;;;2.13;;
71639;SDS011;60912;48.968;10.124;2023-05-07T03:16:39;3.63;;;1.87;;
71639;SDS011;60912;48.968;10.124;2023-05-07T03:19:05;3.83;;;1.90;;
71639;SDS011;60912;48.968;10.124;2023-05-07T03:21:30;3.10;;;2.00;;
71639;SDS011;60912;48.968;10.124;2023-05-07T03:23:58;4.15;;;1.90;;
71639;SDS011;60912;48.968;10.124;2023-05-07T03:26:24;3.80;;;2.20;;
71639;SDS011;60912;48.968;10.124;2023-05-07T03:28:50;4.60;;;1.85;;
71639;SDS011;60912;48.968;10.124;2023-05-07T03:31:16;3.53;;;1.80;;
71639;SDS011;60912;48.968;10.124;2023-05-07T03:33:54;5.55;;;1.80;;
71639;SDS011;60912;48.968;10.124;2023-05-07T03:36:21;3.23;;;2.00;;
71639;SDS011;60912;48.968;10.124;2023-05-07T03:38:46;3.05;;;1.80;;
71639;SDS011;60912;48.968;10.124;2023-05-07T03:41:12;4.80;;;2.00;;
71639;SDS011;60912;48.968;10.124;2023-05-07T03:43:38;4.10;;;2.40;;
71639;SDS011;60912;48.968;10.124;2023-05-07T03:46:03;3.43;;;1.90;;
71639;SDS011;60912;48.968;10.124;2023-05-07T03:48:29;3.30;;;1.80;;
71639;SDS011;60912;48.968;10.124;2023-05-07T03:50:55;4.17;;;1.67;;
71639;SDS011;60912;48.968;10.124;2023-05-07T03:53:21;3.77;;;2.00;;
71639;SDS011;60912;48.968;10.124;2023-05-07T03:55:47;6.13;;;2.13;;
71639;SDS011;60912;48.968;10.124;2023-05-07T03:58:12;7.18;;;1.80;;
71639;SDS011;60912;48.968;10.124;2023-05-07T04:00:37;4.13;;;1.80;;
71639;SDS011;60912;48.968;10.124;2023-05-07T04:03:05;4.50;;;2.00;;
71639;SDS011;60912;48.968;10.124;2023-05-07T04:05:30;3.58;;;1.88;;
71639;SDS011;60912;48.968;10.124;2023-05-07T04:07:57;4.13;;;2.00;;
71639;SDS011;60912;48.968;10.124;2023-05-07T04:10:23;4.47;;;1.80;;
71639;SDS011;60912;48.968;10.124;2023-05-07T04:12:48;6.00;;;2.00;;
71639;SDS011;60912;48.968;10.124;2023-05-07T04:15:14;4.87;;;1.90;;
71639;SDS011;60912;48.968;10.124;2023-05-07T04:17:39;2.92;;;1.83;;
71639;SDS011;60912;48.968;10.124;2023-05-07T04:20:06;3.28;;;1.80;;
71639;SDS011;60912;48.968;10.124;2023-05-07T04:22:34;4.30;;;2.00;;
71639;SDS011;60912;48.968;10.124;2023-05-07T04:24:59;3.25;;;1.70;;
71639;SDS011;60912;48.968;10.124;2023-05-07T04:27:25;4.10;;;2.23;;
71639;SDS011;60912;48.968;10.124;2023-05-07T04:29:51;3.38;;;1.85;;
71639;SDS011;60912;48.968;10.124;2023-05-07T04:32:16;8.63;;;2.07;;
71639;SDS011;60912;48.968;10.124;2023-05-07T04:34:42;3.10;;;2.00;;
71639;SDS011;60912;48.968;10.124;2023-05-07T04:37:08;3.90;;;2.00;;
71639;SDS011;60912;48.968;10.124;2023-05-07T04:39:33;5.53;;;2.30;;
71639;SDS011;60912;48.968;10.124;2023-05-07T04:42:00;4.47;;;2.10;;
71639;SDS011;60912;48.968;10.124;2023-05-07T04:44:25;3.20;;;2.10;;
71639;SDS011;60912;48.968;10.124;2023-05-07T04:46:51;6.03;;;2.35;;
71639;SDS011;60912;48.968;10.124;2023-05-07T04:49:16;5.17;;;2.13;;
71639;SDS011;60912;48.968;10.124;2023-05-07T04:51:41;4.07;;;2.20;;
71639;SDS011;60912;48.968;10.124;2023-05-07T04:54:08;4.93;;;2.30;;
71639;SDS011;60912;48.968;10.124;2023-05-07T04:56:33;4.90;;;2.40;;
71639;SDS011;60912;48.968;10.124;2023-05-07T04:58:58;4.03;;;2.20;;
71639;SDS011;60912;48.968;10.124;2023-05-07T05:01:24;3.75;;;2.35;;
71639;SDS011;60912;48.968;10.124;2023-05-07T05:03:49;4.53;;;2.00;;
71639;SDS011;60912;48.968;10.124;2023-05-07T05:06:14;3.83;;;2.13;;
71639;SDS011;60912;48.968;10.124;2023-05-07T05:08:40;3.80;;;2.20;;
71639;SDS011;60912;48.968;10.124;2023-05-07T05:11:05;5.07;;;2.13;;
71639;SDS011;60912;48.968;10.124;2023-05-07T05:13:31;4.18;;;2.20;;
71639;SDS011;60912;48.968;10.124;2023-05-07T05:15:56;3.70;;;2.07;;
71639;SDS011;60912;48.968;10.124;2023-05-07T05:18:22;4.67;;;2.00;;
71639;SDS011;60912;48.968;10.124;2023-05-07T05:20:47;5.75;;;1.70;;
71639;SDS011;60912;48.968;10.124;2023-05-07T05:23:12;2.60;;;1.63;;
71639;SDS011;60912;48.968;10.124;2023-05-07T05:25:38;3.60;;;1.70;;
71639;SDS011;60912;48.968;10.124;2023-05-07T05:28:04;3.20;;;1.50;;
71639;SDS011;60912;48.968;10.124;2023-05-07T05:30:29;3.53;;;1.80;;
71639;SDS011;60912;48.968;10.124;2023-05-07T05:32:55;5.30;;;1.77;;
71639;SDS011;60912;48.968;10.124;2023-05-07T05:35:20;4.65;;;1.90;;
71639;SDS011;60912;48.968;10.124;2023-05-07T05:37:46;4.37;;;2.07;;
71639;SDS011;60912;48.968;10.124;2023-05-07T05:40:11;5.17;;;2.00;;
71639;SDS011;60912;48.968;10.124;2023-05-07T05:42:37;3.85;;;1.90;;
71639;SDS011;60912;48.968;10.124;2023-05-07T05:45:02;3.73;;;1.90;;
71639;SDS011;60912;48.968;10.124;2023-05-07T05:47:28;4.37;;;2.27;;
71639;SDS011;60912;48.968;10.124;2023-05-07T05:49:54;5.55;;;2.63;;
71639;SDS011;60912;48.968;10.124;2023-05-07T05:52:19;4.22;;;2.10;;
71639;SDS011;60912;48.968;10.124;2023-05-07T05:54:45;5.40;;;2.33;;
71639;SDS011;60912;48.968;10.124;2023-05-07T05:57:10;4.77;;;2.30;;
71639;SDS011;60912;48.968;10.124;2023-05-07T05:59:36;4.30;;;2.60;;
71639;SDS011;60912;48.968;10.124;2023-05-07T06:02:01;4.05;;;2.30;;
71639;SDS011;60912;48.968;10.124;2023-05-07T06:04:27;3.73;;;2.00;;
71639;SDS011;60912;48.968;10.124;2023-05-07T06:06:52;4.00;;;2.33;;
71639;SDS011;60912;48.968;10.124;2023-05-07T06:09:18;4.73;;;2.17;;
71639;SDS011;60912;48.968;10.124;2023-05-07T06:11:43;7.47;;;2.30;;
71639;SDS011;60912;48.968;10.124;2023-05-07T06:14:08;4.40;;;2.10;;
71639;SDS011;60912;48.968;10.124;2023-05-07T06:16:34;3.83;;;2.30;;
71639;SDS011;60912;48.968;10.124;2023-05-07T06:18:59;3.40;;;1.90;;
71639;SDS011;60912;48.968;10.124;2023-05-07T06:21:24;3.70;;;2.23;;
71639;SDS011;60912;48.968;10.124;2023-05-07T06:23:50;3.72;;;2.30;;
71639;SDS011;60912;48.968;10.124;2023-05-07T06:26:17;6.57;;;2.30;;
71639;SDS011;60912;48.968;10.124;2023-05-07T06:28:42;6.40;;;2.45;;
71639;SDS011;60912;48.968;10.124;2023-05-07T06:31:14;4.03;;;2.63;;
71639;SDS011;60912;48.968;10.124;2023-05-07T06:33:41;5.60;;;2.80;;
71639;SDS011;60912;48.968;10.124;2023-05-07T06:36:07;5.68;;;2.97;;
71639;SDS011;60912;48.968;10.124;2023-05-07T06:38:32;4.20;;;3.20;;
71639;SDS011;60912;48.968;10.124;2023-05-07T06:40:57;4.60;;;2.60;;
71639;SDS011;60912;48.968;10.124;2023-05-07T06:43:23;6.20;;;3.10;;
71639;SDS011;60912;48.968;10.124;2023-05-07T06:45:48;4.20;;;2.93;;
71639;SDS011;60912;48.968;10.124;2023-05-07T06:48:13;5.17;;;3.20;;
71639;SDS011;60912;48.968;10.124;2023-05-07T06:50:39;4.80;;;3.30;;
71639;SDS011;60912;48.968;10.124;2023-05-07T06:53:04;5.32;;;2.75;;
71639;SDS011;60912;48.968;10.124;2023-05-07T06:55:30;6.23;;;3.30;;
71639;SDS011;60912;48.968;10.124;2023-05-07T06:57:55;5.03;;;3.03;;
71639;SDS011;60912;48.968;10.124;2023-05-07T07:00:23;4.85;;;3.00;;
71639;SDS011;60912;48.968;10.124;2023-05-07T07:02:48;5.00;;;3.27;;
71639;SDS011;60912;48.968;10.124;2023-05-07T07:05:13;4.60;;;3.37;;
71639;SDS011;60912;48.968;10.124;2023-05-07T07:07:39;5.23;;;3.27;;
71639;SDS011;60912;48.968;10.124;2023-05-07T07:10:04;4.77;;;3.00;;
71639;SDS011;60912;48.968;10.124;2023-05-07T07:12:30;5.30;;;2.90;;
71639;SDS011;60912;48.968;10.124;2023-05-07T07:14:55;6.00;;;3.47;;
71639;SDS011;60912;48.968;10.124;2023-05-07T07:17:21;5.23;;;3.20;;
71639;SDS011;60912;48.968;10.124;2023-05-07T07:19:46;5.70;;;3.53;;
71639;SDS011;60912;48.968;10.124;2023-05-07T07:22:11;6.07;;;2.83;;
71639;SDS011;60912;48.968;10.124;2023-05-07T07:24:37;6.03;;;3.00;;
71639;SDS011;60912;48.968;10.124;2023-05-07T07:27:02;5.50;;;3.40;;
71639;SDS011;60912;48.968;10.124;2023-05-07T07:29:27;5.53;;;3.63;;
71639;SDS011;60912;48.968;10.124;2023-05-07T07:31:53;6.37;;;3.00;;
71639;SDS011;60912;48.968;10.124;2023-05-07T07:34:18;6.43;;;3.20;;
71639;SDS011;60912;48.968;10.124;2023-05-07T07:36:43;5.20;;;3.03;;
71639;SDS011;60912;48.968;10.124;2023-05-07T07:39:09;3.87;;;2.67;;
71639;SDS011;60912;48.968;10.124;2023-05-07T07:41:34;3.97;;;3.00;;
71639;SDS011;60912;48.968;10.124;2023-05-07T07:44:00;4.97;;;2.77;;
71639;SDS011;60912;48.968;10.124;2023-05-07T07:46:25;5.00;;;3.10;;
71639;SDS011;60912;48.968;10.124;2023-05-07T07:48:51;4.80;;;3.00;;
71639;SDS011;60912;48.968;10.124;2023-05-07T07:51:17;6.07;;;3.77;;
71639;SDS011;60912;48.968;10.124;2023-05-07T07:53:42;6.30;;;2.92;;
71639;SDS011;60912;48.968;10.124;2023-05-07T07:56:08;5.00;;;3.30;;
71639;SDS011;60912;48.968;10.124;2023-05-07T07:58:33;6.37;;;2.87;;
71639;SDS011;60912;48.968;10.124;2023-05-07T08:01:00;6.97;;;3.30;;
71639;SDS011;60912;48.968;10.124;2023-05-07T08:03:26;5.93;;;3.10;;
71639;SDS011;60912;48.968;10.124;2023-05-07T08:05:51;4.50;;;2.67;;
71639;SDS011;60912;48.968;10.124;2023-05-07T08:08:17;5.20;;;2.60;;
71639;SDS011;60912;48.968;10.124;2023-05-07T08:10:42;4.03;;;2.80;;
71639;SDS011;60912;48.968;10.124;2023-05-07T08:13:08;5.15;;;2.63;;
71639;SDS011;60912;48.968;10.124;2023-05-07T08:15:33;6.63;;;3.03;;
71639;SDS011;60912;48.968;10.124;2023-05-07T08:17:58;4.80;;;2.50;;
71639;SDS011;60912;48.968;10.124;2023-05-07T08:20:28;4.75;;;2.70;;
71639;SDS011;60912;48.968;10.124;2023-05-07T08:22:54;4.32;;;2.50;;
71639;SDS011;60912;48.968;10.124;2023-05-07T08:25:19;4.60;;;2.80;;
71639;SDS011;60912;48.968;10.124;2023-05-07T08:27:44;5.20;;;2.50;;
71639;SDS011;60912;48.968;10.124;2023-05-07T08:30:10;4.75;;;2.90;;
71639;SDS011;60912;48.968;10.124;2023-05-07T08:32:36;5.00;;;2.87;;
71639;SDS011;60912;48.968;10.124;2023-05-07T08:35:01;4.70;;;2.90;;
71639;SDS011;60912;48.968;10.124;2023-05-07T08:37:27;4.37;;;2.67;;
71639;SDS011;60912;48.968;10.124;2023-05-07T08:39:52;4.53;;;2.80;;
71639;SDS011;60912;48.968;10.124;2023-05-07T08:42:17;4.50;;;2.73;;
71639;SDS011;60912;48.968;10.124;2023-05-07T08:44:45;4.75;;;2.65;;
71639;SDS011;60912;48.968;10.124;2023-05-07T08:47:12;4.95;;;3.00;;
71639;SDS011;60912;48.968;10.124;2023-05-07T08:49:37;4.83;;;2.70;;
71639;SDS011;60912;48.968;10.124;2023-05-07T08:52:03;5.20;;;2.90;;
71639;SDS011;60912;48.968;10.124;2023-05-07T08:54:28;3.73;;;2.30;;
71639;SDS011;60912;48.968;10.124;2023-05-07T08:56:54;4.45;;;2.85;;
71639;SDS011;60912;48.968;10.124;2023-05-07T08:59:20;4.90;;;2.50;;
71639;SDS011;60912;48.968;10.124;2023-05-07T09:01:45;3.40;;;2.27;;
71639;SDS011;60912;48.968;10.124;2023-05-07T09:04:11;4.60;;;2.47;;
71639;SDS011;60912;48.968;10.124;2023-05-07T09:06:37;3.53;;;2.17;;
71639;SDS011;60912;48.968;10.124;2023-05-07T09:09:06;3.58;;;1.80;;
71639;SDS011;60912;48.968;10.124;2023-05-07T09:11:33;4.93;;;1.65;;
71639;SDS011;60912;48.968;10.124;2023-05-07T09:13:58;5.60;;;1.90;;
71639;SDS011;60912;48.968;10.124;2023-05-07T09:16:27;3.35;;;1.67;;
71639;SDS011;60912;48.968;10.124;2023-05-07T09:18:57;4.10;;;1.80;;
71639;SDS011;60912;48.968;10.124;2023-05-07T09:21:23;3.28;;;1.63;;
71639;SDS011;60912;48.968;10.124;2023-05-07T09:23:53;3.40;;;1.88;;
71639;SDS011;60912;48.968;10.124;2023-05-07T09:26:22;4.37;;;1.80;;
71639;SDS011;60912;48.968;10.124;2023-05-07T09:28:48;5.55;;;2.40;;
71639;SDS011;60912;48.968;10.124;2023-05-07T09:31:13;3.40;;;2.00;;
71639;SDS011;60912;48.968;10.124;2023-05-07T09:33:39;2.90;;;1.70;;
71639;SDS011;60912;48.968;10.124;2023-05-07T09:36:06;4.68;;;2.80;;
71639;SDS011;60912;48.968;10.124;2023-05-07T09:38:33;3.75;;;2.50;;
71639;SDS011;60912;48.968;10.124;2023-05-07T09:43:38;2.97;;;1.40;;
71639;SDS011;60912;48.968;10.124;2023-05-07T09:46:24;3.65;;;1.60;;
71639;SDS011;60912;48.968;10.124;2023-05-07T09:48:56;2.95;;;1.27;;
71639;SDS011;60912;48.968;10.124;2023-05-07T09:51:28;2.20;;;1.02;;
71639;SDS011;60912;48.968;10.124;2023-05-07T09:53:56;4.90;;;1.30;;
71639;SDS011;60912;48.968;10.124;2023-05-07T09:56:22;3.22;;;1.40;;
71639;SDS011;60912;48.968;10.124;2023-05-07T09:58:48;2.40;;;1.10;;
71639;SDS011;60912;48.968;10.124;2023-05-07T10:01:15;3.90;;;1.30;;
71639;SDS011;60912;48.968;10.124;2023-05-07T10:03:44;3.55;;;1.20;;
71639;SDS011;60912;48.968;10.124;2023-05-07T10:06:10;2.15;;;1.10;;
71639;SDS011;60912;48.968;10.124;2023-05-07T10:08:38;3.58;;;1.20;;
71639;SDS011;60912;48.968;10.124;2023-05-07T10:11:04;4.93;;;1.53;;
71639;SDS011;60912;48.968;10.124;2023-05-07T10:13:31;3.55;;;1.50;;
71639;SDS011;60912;48.968;10.124;2023-05-07T10:15:59;2.95;;;1.38;;
71639;SDS011;60912;48.968;10.124;2023-05-07T10:18:25;3.38;;;1.80;;
71639;SDS011;60912;48.968;10.124;2023-05-07T10:20:54;3.80;;;1.52;;
71639;SDS011;60912;48.968;10.124;2023-05-07T10:23:27;3.03;;;1.40;;
71639;SDS011;60912;48.968;10.124;2023-05-07T10:25:53;2.85;;;1.48;;
71639;SDS011;60912;48.968;10.124;2023-05-07T10:28:20;3.88;;;1.40;;
71639;SDS011;60912;48.968;10.124;2023-05-07T10:30:51;4.03;;;1.40;;
71639;SDS011;60912;48.968;10.124;2023-05-07T10:33:32;2.03;;;1.00;;
71639;SDS011;60912;48.968;10.124;2023-05-07T10:36:00;2.87;;;1.20;;
71639;SDS011;60912;48.968;10.124;2023-05-07T10:38:27;2.55;;;1.20;;
71639;SDS011;60912;48.968;10.124;2023-05-07T10:40:53;4.20;;;1.20;;
71639;SDS011;60912;48.968;10.124;2023-05-07T10:43:19;4.07;;;1.30;;
71639;SDS011;60912;48.968;10.124;2023-05-07T10:46:03;3.20;;;1.40;;
71639;SDS011;60912;48.968;10.124;2023-05-07T10:51:26;3.38;;;1.48;;
71639;SDS011;60912;48.968;10.124;2023-05-07T10:56:37;2.60;;;1.48;;
71639;SDS011;60912;48.968;10.124;2023-05-07T11:04:31;4.68;;;1.42;;
71639;SDS011;60912;48.968;10.124;2023-05-07T11:17:32;3.47;;;2.10;;
71639;SDS011;60912;48.968;10.124;2023-05-07T11:19:59;3.83;;;1.40;;
71639;SDS011;60912;48.968;10.124;2023-05-07T11:25:03;3.97;;;1.80;;
71639;SDS011;60912;48.968;10.124;2023-05-07T11:27:30;3.23;;;1.60;;
71639;SDS011;60912;48.968;10.124;2023-05-07T11:29:57;4.03;;;2.10;;
71639;SDS011;60912;48.968;10.124;2023-05-07T11:32:32;5.13;;;2.13;;
71639;SDS011;60912;48.968;10.124;2023-05-07T11:34:59;2.77;;;1.47;;
71639;SDS011;60912;48.968;10.124;2023-05-07T11:37:25;3.10;;;1.70;;
71639;SDS011;60912;48.968;10.124;2023-05-07T11:40:06;5.20;;;1.60;;
71639;SDS011;60912;48.968;10.124;2023-05-07T11:42:33;3.38;;;1.50;;
71639;SDS011;60912;48.968;10.124;2023-05-07T11:45:02;2.90;;;1.60;;
71639;SDS011;60912;48.968;10.124;2023-05-07T11:47:31;4.07;;;1.42;;
71639;SDS011;60912;48.968;10.124;2023-05-07T11:50:02;3.25;;;1.80;;
71639;SDS011;60912;48.968;10.124;2023-05-07T11:52:29;4.88;;;1.70;;
71639;SDS011;60912;48.968;10.124;2023-05-07T11:54:55;3.87;;;1.93;;
71639;SDS011;60912;48.968;10.124;2023-05-07T11:57:22;3.40;;;1.67;;
71639;SDS011;60912;48.968;10.124;2023-05-07T11:59:48;3.65;;;1.60;;
71639;SDS011;60912;48.968;10.124;2023-05-07T12:02:18;3.33;;;1.67;;
71639;SDS011;60912;48.968;10.124;2023-05-07T12:04:44;3.90;;;2.03;;
71639;SDS011;60912;48.968;10.124;2023-05-07T12:07:12;2.73;;;1.67;;
71639;SDS011;60912;48.968;10.124;2023-05-07T12:09:41;3.42;;;1.55;;
71639;SDS011;60912;48.968;10.124;2023-05-07T12:12:07;6.05;;;1.83;;
71639;SDS011;60912;48.968;10.124;2023-05-07T12:14:37;2.95;;;1.70;;
71639;SDS011;60912;48.968;10.124;2023-05-07T12:17:05;4.97;;;1.50;;
71639;SDS011;60912;48.968;10.124;2023-05-07T12:19:32;3.83;;;1.50;;
71639;SDS011;60912;48.968;10.124;2023-05-07T12:22:04;3.17;;;1.50;;
71639;SDS011;60912;48.968;10.124;2023-05-07T12:24:45;3.33;;;1.48;;
71639;SDS011;60912;48.968;10.124;2023-05-07T12:27:15;3.83;;;1.70;;
71639;SDS011;60912;48.968;10.124;2023-05-07T12:29:47;3.37;;;1.60;;
71639;SDS011;60912;48.968;10.124;2023-05-07T12:32:17;5.03;;;1.63;;
71639;SDS011;60912;48.968;10.124;2023-05-07T12:34:43;4.63;;;1.70;;
71639;SDS011;60912;48.968;10.124;2023-05-07T12:37:09;3.53;;;1.42;;
71639;SDS011;60912;48.968;10.124;2023-05-07T12:39:35;3.77;;;1.60;;
71639;SDS011;60912;48.968;10.124;2023-05-07T12:42:01;2.90;;;1.60;;
71639;SDS011;60912;48.968;10.124;2023-05-07T12:44:30;5.20;;;2.23;;
71639;SDS011;60912;48.968;10.124;2023-05-07T12:46:56;3.78;;;1.67;;
71639;SDS011;60912;48.968;10.124;2023-05-07T12:49:23;4.18;;;1.50;;
71639;SDS011;60912;48.968;10.124;2023-05-07T12:51:51;4.57;;;1.42;;
71639;SDS011;60912;48.968;10.124;2023-05-07T12:54:32;3.17;;;1.43;;
71639;SDS011;60912;48.968;10.124;2023-05-07T12:57:06;5.10;;;1.50;;
71639;SDS011;60912;48.968;10.124;2023-05-07T12:59:39;3.95;;;1.48;;
71639;SDS011;60912;48.968;10.124;2023-05-07T13:02:05;2.37;;;1.40;;
71639;SDS011;60912;48.968;10.124;2023-05-07T13:04:31;2.50;;;1.30;;
71639;SDS011;60912;48.968;10.124;2023-05-07T13:06:58;3.50;;;1.55;;
71639;SDS011;60912;48.968;10.124;2023-05-07T13:09:24;3.63;;;1.50;;
71639;SDS011;60912;48.968;10.124;2023-05-07T13:11:49;4.13;;;1.50;;
71639;SDS011;60912;48.968;10.124;2023-05-07T13:14:15;3.07;;;1.40;;
71639;SDS011;60912;48.968;10.124;2023-05-07T13:16:41;3.50;;;1.40;;
71639;SDS011;60912;48.968;10.124;2023-05-07T13:19:06;4.53;;;1.60;;
71639;SDS011;60912;48.968;10.124;2023-05-07T13:21:32;2.63;;;1.33;;
71639;SDS011;60912;48.968;10.124;2023-05-07T13:23:57;3.53;;;1.48;;
71639;SDS011;60912;48.968;10.124;2023-05-07T13:26:23;2.60;;;1.30;;
71639;SDS011;60912;48.968;10.124;2023-05-07T13:28:49;4.00;;;1.35;;
71639;SDS011;60912;48.968;10.124;2023-05-07T13:31:15;3.40;;;1.30;;
71639;SDS011;60912;48.968;10.124;2023-05-07T13:33:42;5.15;;;1.60;;
71639;SDS011;60912;48.968;10.124;2023-05-07T13:36:07;4.43;;;1.57;;
71639;SDS011;60912;48.968;10.124;2023-05-07T13:38:33;2.40;;;1.40;;
71639;SDS011;60912;48.968;10.124;2023-05-07T13:40:58;3.40;;;1.40;;
71639;SDS011;60912;48.968;10.124;2023-05-07T13:43:24;4.27;;;1.30;;
71639;SDS011;60912;48.968;10.124;2023-05-07T13:45:50;3.00;;;1.40;;
71639;SDS011;60912;48.968;10.124;2023-05-07T13:48:15;3.40;;;1.30;;
71639;SDS011;60912;48.968;10.124;2023-05-07T13:50:40;2.60;;;1.40;;
71639;SDS011;60912;48.968;10.124;2023-05-07T13:53:07;5.27;;;2.90;;
71639;SDS011;60912;48.968;10.124;2023-05-07T13:55:32;3.95;;;1.90;;
71639;SDS011;60912;48.968;10.124;2023-05-07T13:57:59;3.85;;;1.77;;
71639;SDS011;60912;48.968;10.124;2023-05-07T14:00:25;3.57;;;1.77;;
71639;SDS011;60912;48.968;10.124;2023-05-07T14:02:52;4.70;;;1.80;;
71639;SDS011;60912;48.968;10.124;2023-05-07T14:05:18;3.65;;;1.92;;
71639;SDS011;60912;48.968;10.124;2023-05-07T14:07:43;4.80;;;1.80;;
71639;SDS011;60912;48.968;10.124;2023-05-07T14:10:09;3.92;;;1.83;;
71639;SDS011;60912;48.968;10.124;2023-05-07T14:12:35;3.77;;;1.70;;
71639;SDS011;60912;48.968;10.124;2023-05-07T14:15:01;9.38;;;2.72;;
71639;SDS011;60912;48.968;10.124;2023-05-07T14:17:26;4.83;;;2.77;;
71639;SDS011;60912;48.968;10.124;2023-05-07T14:19:52;5.73;;;3.77;;
71639;SDS011;60912;48.968;10.124;2023-05-07T14:22:22;3.75;;;1.70;;
71639;SDS011;60912;48.968;10.124;2023-05-07T14:24:48;3.38;;;1.77;;
71639;SDS011;60912;48.968;10.124;2023-05-07T14:27:14;4.85;;;3.03;;
71639;SDS011;60912;48.968;10.124;2023-05-07T14:29:40;2.80;;;1.70;;
71639;SDS011;60912;48.968;10.124;2023-05-07T14:32:05;3.83;;;1.90;;
71639;SDS011;60912;48.968;10.124;2023-05-07T14:34:31;3.57;;;1.93;;
71639;SDS011;60912;48.968;10.124;2023-05-07T14:36:57;4.07;;;1.80;;
71639;SDS011;60912;48.968;10.124;2023-05-07T14:39:23;6.17;;;2.00;;
71639;SDS011;60912;48.968;10.124;2023-05-07T14:41:49;4.18;;;1.63;;
71639;SDS011;60912;48.968;10.124;2023-05-07T14:44:14;4.50;;;1.87;;
71639;SDS011;60912;48.968;10.124;2023-05-07T14:46:39;7.30;;;1.93;;
71639;SDS011;60912;48.968;10.124;2023-05-07T14:49:05;4.00;;;1.90;;
71639;SDS011;60912;48.968;10.124;2023-05-07T14:51:32;3.25;;;1.80;;
71639;SDS011;60912;48.968;10.124;2023-05-07T14:53:58;4.87;;;2.20;;
71639;SDS011;60912;48.968;10.124;2023-05-07T14:56:24;3.30;;;1.50;;